Time;durP1;ratioP1;P1;durP2;ratioP2;P2;SDS_P1;SDS_P2;PMS_P1;PMS_P2;Temp;Humidity;BMP_temperature;BMP_pressure;BME280_temperature;BME280_humidity;BME280_pressure;Samples;Min_cycle;Max_cycle;Signal;HPM_P1;HPM_P2
2022/03/11 00:01:50;;;;;;;15.70;11.40;;;;;;;9.57;35.29;101660.69;5099151;28;20051;-69
2022/03/11 00:04:16;;;;;;;16.17;11.85;;;;;;;9.54;35.37;101667.84;5091865;28;20040;-69
2022/03/11 00:06:42;;;;;;;15.70;11.80;;;;;;;9.51;35.28;101667.13;5085451;28;20419;-69
2022/03/11 00:09:07;;;;;;;16.85;12.23;;;;;;;9.45;35.40;101662.09;5096652;28;20028;-69
2022/03/11 00:11:33;;;;;;;18.05;11.98;;;;;;;9.41;35.60;101658.72;5094159;28;20024;-69
2022/03/11 00:13:58;;;;;;;16.70;11.43;;;;;;;9.42;35.69;101662.25;5075771;28;20057;-70
2022/03/11 00:16:26;;;;;;;18.08;12.30;;;;;;;9.36;35.91;101657.22;5093196;28;20490;-69
2022/03/11 00:18:52;;;;;;;17.40;12.50;;;;;;;9.10;35.80;101632.69;5110822;28;20015;-69
2022/03/11 00:21:17;;;;;;;15.18;12.25;;;;;;;9.16;36.16;101640.38;5071142;28;20669;-69
2022/03/11 00:23:43;;;;;;;17.52;12.23;;;;;;;9.17;36.42;101647.38;5087835;28;20039;-69
2022/03/11 00:26:12;;;;;;;15.88;12.23;;;;;;;9.16;36.31;101645.69;5090107;28;20106;-69
2022/03/11 00:28:38;;;;;;;18.20;12.60;;;;;;;8.97;36.15;101632.38;5076506;28;20035;-69
2022/03/11 00:31:05;;;;;;;16.17;13.27;;;;;;;9.01;36.62;101636.59;5069341;28;20024;-69
2022/03/11 00:33:30;;;;;;;20.52;13.02;;;;;;;9.07;36.38;101646.94;5078424;28;20019;-70
2022/03/11 00:35:56;;;;;;;18.17;12.35;;;;;;;9.06;36.64;101652.34;5074880;28;20091;-69
2022/03/11 00:38:26;;;;;;;19.73;12.68;;;;;;;9.06;36.82;101649.69;5096618;28;20020;-69
2022/03/11 00:40:56;;;;;;;18.15;12.77;;;;;;;9.17;36.67;101642.09;5094684;28;20034;-69
2022/03/11 00:43:25;;;;;;;20.05;13.10;;;;;;;9.07;36.63;101635.47;5099516;28;20028;-69
2022/03/11 00:45:51;;;;;;;19.30;13.57;;;;;;;9.05;36.59;101646.13;5096757;28;20032;-69
2022/03/11 00:48:17;;;;;;;18.17;13.25;;;;;;;9.04;36.85;101638.25;5074333;28;20034;-69
2022/03/11 00:50:43;;;;;;;24.23;13.43;;;;;;;8.94;37.04;101627.19;5070971;28;20119;-69
2022/03/11 00:53:09;;;;;;;16.58;12.93;;;;;;;8.95;37.13;101636.88;5096549;28;20020;-69
2022/03/11 00:55:34;;;;;;;16.33;12.52;;;;;;;8.84;37.74;101633.81;5073479;28;20028;-69
2022/03/11 00:58:02;;;;;;;16.00;12.10;;;;;;;8.81;37.25;101632.16;5100827;28;20462;-69
2022/03/11 01:00:28;;;;;;;21.38;13.25;;;;;;;8.84;37.55;101626.72;5105241;28;20024;-69
2022/03/11 01:02:54;;;;;;;17.45;13.13;;;;;;;8.81;37.40;101623.34;5105127;28;20052;-69
2022/03/11 01:05:23;;;;;;;22.65;13.65;;;;;;;8.73;37.66;101617.50;5107694;28;20019;-69
2022/03/11 01:07:49;;;;;;;19.23;14.10;;;;;;;8.70;37.65;101622.94;5109891;28;20153;-69
2022/03/11 01:10:15;;;;;;;17.75;12.65;;;;;;;8.73;37.60;101613.06;5096244;28;20031;-69
2022/03/11 01:12:42;;;;;;;18.50;12.65;;;;;;;8.61;37.72;101608.28;5093011;28;20032;-69
2022/03/11 01:15:08;;;;;;;19.58;13.43;;;;;;;8.60;37.88;101612.72;5096077;28;20032;-69
2022/03/11 01:17:33;;;;;;;20.42;13.68;;;;;;;8.67;37.72;101602.72;5057767;28;20081;-69
2022/03/11 01:19:59;;;;;;;20.10;13.32;;;;;;;8.69;38.00;101605.31;5075121;28;20032;-69
2022/03/11 01:22:25;;;;;;;20.13;13.70;;;;;;;8.69;37.98;101605.31;5103348;28;20027;-69
2022/03/11 01:24:50;;;;;;;20.63;13.43;;;;;;;8.61;37.97;101595.88;5107033;28;20039;-69
2022/03/11 01:27:16;;;;;;;18.45;13.55;;;;;;;8.57;37.87;101601.38;5096261;28;20120;-69
2022/03/11 01:29:45;;;;;;;19.30;13.30;;;;;;;8.48;38.05;101593.84;5095016;28;20046;-69
2022/03/11 01:32:10;;;;;;;19.23;13.30;;;;;;;8.40;38.18;101594.13;5093479;28;20036;-69
2022/03/11 01:34:37;;;;;;;20.30;13.52;;;;;;;8.41;37.79;101585.25;5093862;28;20062;-69
2022/03/11 01:37:04;;;;;;;21.45;14.00;;;;;;;8.51;38.17;101585.75;5092455;28;20103;-69
2022/03/11 01:39:33;;;;;;;20.58;14.60;;;;;;;8.40;37.85;101576.44;5075283;28;20142;-69
2022/03/11 01:41:59;;;;;;;19.63;13.77;;;;;;;8.35;38.23;101570.47;5091140;28;20028;-69
2022/03/11 01:44:25;;;;;;;18.65;13.40;;;;;;;8.41;38.08;101575.53;5093068;28;20390;-69
2022/03/11 01:46:51;;;;;;;22.27;14.68;;;;;;;8.32;38.40;101575.00;5090709;28;20020;-69
2022/03/11 01:49:17;;;;;;;18.27;13.88;;;;;;;8.28;38.27;101562.81;5093751;28;20030;-69
2022/03/11 01:51:43;;;;;;;19.50;13.00;;;;;;;8.23;38.39;101562.16;5096165;28;20036;-69
2022/03/11 01:54:12;;;;;;;20.05;13.57;;;;;;;8.18;38.64;101557.91;5095520;28;20368;-69
2022/03/11 01:56:42;;;;;;;16.90;13.73;;;;;;;8.14;38.17;101551.00;5109231;28;20011;-69
2022/03/11 01:59:11;;;;;;;19.75;13.73;;;;;;;8.13;38.56;101548.44;5091920;28;20116;-69
2022/03/11 02:01:37;;;;;;;20.33;13.60;;;;;;;8.08;38.82;101537.16;5075728;28;20020;-69
2022/03/11 02:04:03;;;;;;;23.90;13.40;;;;;;;8.14;38.22;101542.19;5087211;28;20042;-69
2022/03/11 02:06:28;;;;;;;18.60;13.77;;;;;;;8.09;38.66;101536.22;5095307;28;20036;-69
2022/03/11 02:08:55;;;;;;;17.75;13.63;;;;;;;8.11;38.64;101531.72;5099674;28;20028;-69
2022/03/11 02:11:21;;;;;;;23.45;13.55;;;;;;;8.08;38.58;101540.66;5096251;28;20016;-69
2022/03/11 02:14:00;;;;;;;19.20;13.50;;;;;;;8.06;38.77;101539.00;5079961;28;20030;-69
2022/03/11 02:16:30;;;;;;;16.58;12.82;;;;;;;7.96;38.66;101528.78;5100030;28;20372;-69
2022/03/11 02:18:56;;;;;;;17.58;13.75;;;;;;;7.99;38.47;101526.94;5077941;28;20544;-69
2022/03/11 02:21:25;;;;;;;22.83;13.75;;;;;;;7.90;38.37;101514.94;5100530;28;20027;-69
2022/03/11 02:23:56;;;;;;;19.70;14.00;;;;;;;7.78;38.82;101502.22;5079088;28;20028;-69
2022/03/11 02:26:23;;;;;;;19.70;14.10;;;;;;;7.92;38.79;101510.44;5095097;28;20079;-69
2022/03/11 02:28:51;;;;;;;18.00;13.57;;;;;;;7.74;38.54;101507.63;5074152;28;20035;-69
2022/03/11 02:31:23;;;;;;;20.83;14.00;;;;;;;7.71;39.13;101513.06;5104165;28;20028;-69
2022/03/11 02:33:50;;;;;;;18.98;14.45;;;;;;;7.72;39.00;101512.13;5107063;28;20493;-69
2022/03/11 02:36:15;;;;;;;21.25;13.68;;;;;;;7.74;38.49;101506.78;5074839;28;20118;-69
2022/03/11 02:38:41;;;;;;;22.58;13.52;;;;;;;7.70;38.77;101495.41;5097179;28;20035;-68
2022/03/11 02:41:07;;;;;;;19.88;14.95;;;;;;;7.67;38.65;101499.97;5085535;28;20063;-69
2022/03/11 02:43:32;;;;;;;19.98;14.23;;;;;;;7.71;38.58;101499.81;5097316;28;20343;-69
2022/03/11 02:45:59;;;;;;;22.90;13.93;;;;;;;7.64;38.49;101481.56;5076929;28;20035;-69
2022/03/11 02:48:24;;;;;;;17.45;13.43;;;;;;;7.80;38.91;101493.28;5080336;28;20075;-69
2022/03/11 02:50:52;;;;;;;17.70;13.40;;;;;;;7.72;38.77;101493.59;5068379;28;20089;-69
2022/03/11 02:53:18;;;;;;;23.30;14.30;;;;;;;7.72;38.92;101498.88;5099913;28;20570;-69
2022/03/11 02:55:44;;;;;;;17.02;13.15;;;;;;;7.69;38.75;101495.50;5106079;28;20027;-69
2022/03/11 02:58:10;;;;;;;19.85;13.23;;;;;;;7.66;38.79;101485.88;5098504;28;20415;-69
2022/03/11 03:00:37;;;;;;;16.40;13.32;;;;;;;7.69;38.86;101492.84;5073735;28;20058;-69
2022/03/11 03:03:02;;;;;;;23.23;14.52;;;;;;;7.64;38.38;101487.72;5079997;28;20044;-69
2022/03/11 03:05:28;;;;;;;18.08;13.25;;;;;;;7.56;38.78;101484.56;5083270;28;20380;-69
2022/03/11 03:07:53;;;;;;;18.65;13.48;;;;;;;7.51;38.65;101473.28;5091679;28;20090;-69
2022/03/11 03:10:21;;;;;;;17.42;12.90;;;;;;;7.47;39.08;101482.25;5084332;28;20039;-68
2022/03/11 03:12:47;;;;;;;18.92;13.55;;;;;;;7.43;39.29;101480.66;5071176;28;20556;-69
2022/03/11 03:15:12;;;;;;;16.67;12.52;;;;;;;7.45;39.01;101470.88;5080779;28;20040;-68
2022/03/11 03:17:42;;;;;;;18.08;13.15;;;;;;;7.32;39.59;101483.72;5086578;28;20039;-69
2022/03/11 03:20:09;;;;;;;18.42;13.65;;;;;;;7.44;38.78;101477.97;5073873;28;20132;-68
2022/03/11 03:22:35;;;;;;;20.42;13.00;;;;;;;7.40;38.94;101484.28;5092872;28;20038;-68
2022/03/11 03:25:04;;;;;;;19.65;12.98;;;;;;;7.38;38.89;101469.38;5084830;28;21327;-69
2022/03/11 03:27:30;;;;;;;17.33;13.18;;;;;;;7.27;39.04;101464.53;5113797;28;20031;-69
2022/03/11 03:29:55;;;;;;;19.23;13.45;;;;;;;7.41;38.98;101477.19;5104829;28;20040;-69
2022/03/11 03:32:22;;;;;;;17.42;12.95;;;;;;;7.32;39.44;101483.72;5112285;28;20034;-68
2022/03/11 03:34:47;;;;;;;20.60;12.88;;;;;;;7.37;39.00;101470.31;5083675;28;20032;-68
2022/03/11 03:37:15;;;;;;;18.63;12.88;;;;;;;7.37;39.24;101465.88;5078071;28;20031;-68
2022/03/11 03:39:42;;;;;;;16.45;12.68;;;;;;;7.26;39.21;101465.44;5113537;28;20027;-68
2022/03/11 03:42:08;;;;;;;18.65;12.88;;;;;;;7.24;39.15;101472.59;5108887;28;20543;-68
2022/03/11 03:44:34;;;;;;;19.33;13.85;;;;;;;7.23;39.51;101468.22;5101626;28;20024;-68
2022/03/11 03:47:00;;;;;;;17.40;13.07;;;;;;;7.25;38.75;101471.66;5079601;28;20119;-68
2022/03/11 03:49:28;;;;;;;18.10;13.18;;;;;;;7.23;39.22;101479.66;5082450;28;20453;-68
2022/03/11 03:51:54;;;;;;;19.70;13.13;;;;;;;7.20;39.57;101473.63;5103975;28;20031;-68
2022/03/11 03:54:20;;;;;;;19.85;12.98;;;;;;;7.12;39.19;101465.13;5101424;28;20562;-68
2022/03/11 03:56:46;;;;;;;18.17;12.95;;;;;;;7.12;39.23;101467.75;5100311;28;20069;-68
2022/03/11 03:59:13;;;;;;;16.70;12.30;;;;;;;7.20;39.63;101466.53;5094249;28;20032;-68
2022/03/11 04:01:40;;;;;;;21.13;12.68;;;;;;;7.08;39.48;101455.59;5100452;28;20023;-68
2022/03/11 04:04:07;;;;;;;17.95;12.68;;;;;;;6.99;39.64;101452.38;5074895;28;20174;-68
2022/03/11 04:06:34;;;;;;;18.02;13.10;;;;;;;7.07;39.27;101461.81;5094896;28;20027;-68
2022/03/11 04:09:00;;;;;;;24.02;13.50;;;;;;;6.96;39.54;101457.78;5097170;28;20384;-68
2022/03/11 04:11:29;;;;;;;19.75;12.20;;;;;;;6.95;39.56;101458.72;5112913;28;20031;-68
2022/03/11 04:13:55;;;;;;;16.17;13.00;;;;;;;6.91;39.88;101451.81;5098356;28;20031;-68
2022/03/11 04:16:21;;;;;;;18.10;13.40;;;;;;;6.88;39.29;101456.34;5083126;28;20074;-68
2022/03/11 04:18:48;;;;;;;19.00;13.32;;;;;;;6.86;39.46;101463.50;5063860;28;20033;-68
2022/03/11 04:21:15;;;;;;;15.75;12.25;;;;;;;6.90;39.77;101463.31;5096353;28;20062;-68
2022/03/11 04:23:41;;;;;;;17.15;12.05;;;;;;;6.84;39.54;101452.97;5093407;28;20479;-68
2022/03/11 04:26:07;;;;;;;16.13;12.40;;;;;;;6.84;39.43;101455.59;5077825;28;20035;-68
2022/03/11 04:28:33;;;;;;;16.20;11.90;;;;;;;6.83;39.66;101460.03;5102432;28;20032;-68
2022/03/11 04:30:59;;;;;;;16.08;12.45;;;;;;;6.80;39.68;101446.06;5111823;28;20500;-68
2022/03/11 04:33:24;;;;;;;17.88;12.52;;;;;;;6.82;39.74;101444.22;5058800;28;20075;-68
2022/03/11 04:35:53;;;;;;;16.05;12.95;;;;;;;6.81;39.44;101438.06;5083430;28;20059;-68
2022/03/11 04:38:18;;;;;;;17.85;12.30;;;;;;;6.88;39.48;101445.75;5081750;28;20498;-68
2022/03/11 04:40:44;;;;;;;17.17;12.50;;;;;;;6.88;39.79;101443.13;5105541;28;20035;-68
2022/03/11 04:43:10;;;;;;;17.20;11.68;;;;;;;6.83;39.55;101430.94;5075173;28;20384;-68
2022/03/11 04:45:36;;;;;;;16.15;11.68;;;;;;;6.85;39.57;101443.25;5094288;28;20148;-68
2022/03/11 04:48:04;;;;;;;16.13;12.27;;;;;;;6.78;39.39;101432.91;5098091;28;20032;-68
2022/03/11 04:50:30;;;;;;;18.13;12.40;;;;;;;6.77;38.90;101439.13;5076196;28;20047;-68
2022/03/11 04:52:58;;;;;;;15.43;11.60;;;;;;;6.76;39.33;101437.38;5111159;28;20490;-68
2022/03/11 04:55:23;;;;;;;16.52;11.82;;;;;;;6.83;39.28;101435.38;5097353;28;20039;-68
2022/03/11 04:57:49;;;;;;;15.55;12.25;;;;;;;6.74;39.20;101441.03;5096333;28;20027;-68
2022/03/11 05:00:15;;;;;;;16.48;11.80;;;;;;;6.69;39.43;101443.81;5096082;28;20038;-68
2022/03/11 05:02:44;;;;;;;16.25;12.52;;;;;;;6.69;38.92;101456.19;5094274;28;20023;-68
2022/03/11 05:05:11;;;;;;;18.17;13.38;;;;;;;6.40;39.67;101402.63;5109306;28;20035;-68
2022/03/11 05:07:37;;;;;;;16.23;12.23;;;;;;;6.68;39.69;101439.47;5106492;28;20083;-68
2022/03/11 05:10:03;;;;;;;15.77;11.63;;;;;;;6.67;39.68;101439.50;5077452;28;20023;-68
2022/03/11 05:12:30;;;;;;;13.63;11.35;;;;;;;6.67;39.75;101434.22;5084814;28;20115;-68
2022/03/11 05:14:56;;;;;;;14.90;11.50;;;;;;;6.59;39.89;101435.38;5099031;28;20028;-68
2022/03/11 05:17:21;;;;;;;16.58;12.52;;;;;;;6.62;39.54;101421.19;5093038;28;20023;-68
2022/03/11 05:19:47;;;;;;;16.85;12.48;;;;;;;6.66;39.86;101435.16;5098493;28;20023;-68
2022/03/11 05:22:13;;;;;;;15.93;11.52;;;;;;;6.66;39.95;101437.78;5103897;28;20024;-68
2022/03/11 05:24:38;;;;;;;20.25;11.68;;;;;;;6.53;40.03;101427.69;5095868;28;20016;-68
2022/03/11 05:27:05;;;;;;;15.32;11.90;;;;;;;6.50;40.01;101422.50;5111372;28;20030;-68
2022/03/11 05:29:36;;;;;;;16.48;11.70;;;;;;;6.51;40.00;101432.16;5101420;28;20027;-68
2022/03/11 05:32:03;;;;;;;15.35;11.93;;;;;;;6.48;40.45;101423.47;5092242;28;20055;-68
2022/03/11 05:34:28;;;;;;;15.40;11.38;;;;;;;6.46;40.15;101425.31;5098895;28;20031;-68
2022/03/11 05:36:53;;;;;;;16.23;11.48;;;;;;;6.42;40.65;101432.50;5058750;28;20032;-68
2022/03/11 05:39:20;;;;;;;15.18;12.25;;;;;;;6.37;40.73;101421.22;5110706;28;20031;-68
2022/03/11 05:41:48;;;;;;;14.63;11.32;;;;;;;6.38;40.39;101425.59;5098815;28;20111;-68
2022/03/11 05:44:18;;;;;;;16.25;11.65;;;;;;;6.39;40.81;101429.97;5083114;28;20056;-68
2022/03/11 05:46:45;;;;;;;17.70;12.02;;;;;;;6.32;41.29;101425.81;5092554;28;20705;-68
2022/03/11 05:49:11;;;;;;;16.17;11.43;;;;;;;6.40;41.54;101423.75;5063244;28;20031;-68
2022/03/11 05:51:37;;;;;;;17.58;12.05;;;;;;;6.35;40.94;101430.97;5089475;28;20387;-67
2022/03/11 05:54:03;;;;;;;16.77;11.65;;;;;;;6.37;41.45;101419.44;5108452;28;20069;-67
2022/03/11 05:56:29;;;;;;;17.70;11.27;;;;;;;6.25;41.44;101398.75;5096876;28;20035;-67
2022/03/11 05:58:55;;;;;;;14.98;11.82;;;;;;;6.35;41.08;101423.06;5092049;28;20036;-68
2022/03/11 06:01:21;;;;;;;16.75;12.07;;;;;;;6.31;41.19;101418.81;5099501;28;20028;-67
2022/03/11 06:03:47;;;;;;;17.20;11.00;;;;;;;6.30;41.56;101417.94;5102215;28;20044;-67
2022/03/11 06:06:16;;;;;;;18.40;11.82;;;;;;;6.32;41.55;101415.22;5074288;28;20032;-67
2022/03/11 06:08:44;;;;;;;17.88;12.50;;;;;;;6.29;42.08;101412.72;5074719;28;20361;-67
2022/03/11 06:11:10;;;;;;;17.30;12.32;;;;;;;6.33;42.03;101416.97;5103174;28;20044;-67
2022/03/11 06:13:36;;;;;;;18.92;12.38;;;;;;;6.34;42.24;101414.28;5092752;28;20031;-68
2022/03/11 06:16:03;;;;;;;15.32;11.63;;;;;;;6.29;41.66;101416.22;5092054;28;20517;-68
2022/03/11 06:18:29;;;;;;;14.80;11.32;;;;;;;6.28;41.84;101414.50;5101049;28;20043;-67
2022/03/11 06:20:56;;;;;;;16.83;12.27;;;;;;;6.31;41.75;101419.66;5097296;28;20130;-68
2022/03/11 06:23:22;;;;;;;17.45;12.00;;;;;;;6.26;42.43;101424.25;5091732;28;20027;-67
2022/03/11 06:25:47;;;;;;;15.15;11.50;;;;;;;6.22;42.44;101424.44;5085400;28;20400;-68
2022/03/11 06:28:13;;;;;;;16.40;11.75;;;;;;;6.20;42.89;101424.47;5084746;28;20040;-67
2022/03/11 06:30:39;;;;;;;15.85;12.60;;;;;;;6.18;42.76;101431.59;5089243;28;20492;-67
2022/03/11 06:33:07;;;;;;;17.88;12.57;;;;;;;6.18;42.66;101433.34;5067335;28;20462;-67
2022/03/11 06:35:33;;;;;;;17.90;12.80;;;;;;;6.18;42.79;101426.31;5105136;28;20062;-67
2022/03/11 06:37:59;;;;;;;19.30;12.43;;;;;;;6.11;43.01;101416.88;5092405;28;20070;-67
2022/03/11 06:40:25;;;;;;;17.55;11.95;;;;;;;6.16;43.01;101428.16;5086875;28;20059;-67
2022/03/11 06:42:53;;;;;;;17.77;12.45;;;;;;;6.17;43.09;101424.56;5096260;28;20028;-67
2022/03/11 06:45:21;;;;;;;17.25;12.90;;;;;;;6.21;43.17;101423.56;5098641;28;20039;-67
2022/03/11 06:47:48;;;;;;;17.80;12.60;;;;;;;6.26;42.75;101426.03;5098761;28;20085;-67
2022/03/11 06:50:15;;;;;;;17.95;11.93;;;;;;;6.27;43.46;101425.13;5097477;28;20039;-67
2022/03/11 06:52:42;;;;;;;33.28;13.70;;;;;;;6.37;43.08;101416.78;5079766;28;20043;-67
2022/03/11 06:55:10;;;;;;;23.20;13.25;;;;;;;6.28;43.32;101405.72;5105393;28;20023;-67
2022/03/11 06:57:35;;;;;;;23.88;13.57;;;;;;;6.41;42.80;101417.53;5102200;28;20024;-67
2022/03/11 07:00:04;;;;;;;15.50;12.68;;;;;;;6.44;42.43;101421.84;5110989;28;20031;-67
2022/03/11 07:02:30;;;;;;;20.55;13.35;;;;;;;6.51;42.33;101410.16;5087200;28;20034;-67
2022/03/11 07:04:55;;;;;;;19.52;12.77;;;;;;;6.52;42.50;101417.16;5104449;28;20127;-67
2022/03/11 07:07:22;;;;;;;20.83;12.52;;;;;;;6.58;42.89;101416.94;5105425;28;20375;-67
2022/03/11 07:09:47;;;;;;;16.83;12.55;;;;;;;6.64;42.34;101408.75;5110943;28;20533;-67
2022/03/11 07:12:13;;;;;;;18.55;12.98;;;;;;;6.69;42.74;101405.97;5059582;28;20173;-67
2022/03/11 07:14:39;;;;;;;19.17;12.95;;;;;;;6.74;42.36;101398.72;5105537;28;20486;-67
2022/03/11 07:17:06;;;;;;;18.70;13.00;;;;;;;6.83;42.47;101404.50;5092795;28;20034;-67
2022/03/11 07:19:32;;;;;;;22.90;13.20;;;;;;;6.88;42.32;101409.59;5114215;28;20020;-67
2022/03/11 07:21:59;;;;;;;25.95;12.90;;;;;;;6.89;42.11;101405.22;5104730;28;20394;-68
2022/03/11 07:24:25;;;;;;;17.15;12.55;;;;;;;6.96;41.99;101399.59;5092984;28;20173;-67
2022/03/11 07:26:51;;;;;;;18.00;12.77;;;;;;;6.96;41.90;101401.38;5089307;28;20522;-68
2022/03/11 07:29:22;;;;;;;18.40;12.80;;;;;;;7.08;42.06;101403.53;5100215;28;20039;-67
2022/03/11 07:31:48;;;;;;;20.15;13.45;;;;;;;7.16;42.21;101404.09;5106267;28;20486;-67
2022/03/11 07:34:16;;;;;;;16.55;12.75;;;;;;;7.23;41.54;101410.88;5094832;28;20054;-68
2022/03/11 07:36:42;;;;;;;19.75;12.98;;;;;;;7.32;41.74;101408.78;5094471;28;20070;-68
2022/03/11 07:39:11;;;;;;;20.58;13.55;;;;;;;7.37;41.56;101405.03;5108131;28;20039;-68
2022/03/11 07:41:37;;;;;;;20.50;13.50;;;;;;;7.45;41.96;101412.66;5093143;28;20027;-68
2022/03/11 07:44:04;;;;;;;17.95;13.45;;;;;;;7.54;41.78;101406.13;5102715;28;20034;-68
2022/03/11 07:46:32;;;;;;;22.92;14.38;;;;;;;7.60;41.30;101398.78;5094261;28;20032;-68
2022/03/11 07:48:58;;;;;;;19.00;13.45;;;;;;;7.69;41.74;101394.91;5105553;28;20123;-68
2022/03/11 07:51:25;;;;;;;17.10;13.32;;;;;;;7.80;41.28;101397.94;5103218;28;20115;-68
2022/03/11 07:53:51;;;;;;;17.42;14.25;;;;;;;7.73;41.24;101380.59;5078669;28;21347;-68
2022/03/11 07:56:19;;;;;;;17.20;13.00;;;;;;;7.79;40.88;101390.91;5098886;28;20031;-69
2022/03/11 07:58:45;;;;;;;19.80;13.55;;;;;;;7.95;41.15;101394.63;5076522;28;20043;-68
2022/03/11 08:01:13;;;;;;;19.10;13.43;;;;;;;8.07;40.64;101389.75;5095614;28;20367;-68
2022/03/11 08:03:40;;;;;;;20.02;13.98;;;;;;;8.09;40.55;101379.91;5077387;28;20048;-68
2022/03/11 08:06:08;;;;;;;22.60;14.18;;;;;;;8.20;40.18;101372.34;5076185;28;20036;-68
2022/03/11 08:08:37;;;;;;;20.05;13.93;;;;;;;8.27;40.27;101373.81;5073685;28;20031;-68
2022/03/11 08:11:03;;;;;;;22.45;13.70;;;;;;;8.43;39.82;101365.19;5074203;28;20032;-68
2022/03/11 08:13:28;;;;;;;19.20;13.43;;;;;;;8.41;40.17;101378.50;5075935;28;20031;-68
2022/03/11 08:15:54;;;;;;;19.40;13.60;;;;;;;8.57;40.25;101370.72;5085755;28;20081;-68
2022/03/11 08:18:20;;;;;;;18.23;14.15;;;;;;;8.78;39.94;101379.47;5091239;28;20023;-68
2022/03/11 08:20:46;;;;;;;21.60;14.43;;;;;;;8.80;39.77;101388.22;5081442;28;20028;-68
2022/03/11 08:23:15;;;;;;;24.90;13.80;;;;;;;8.89;39.44;101386.94;5109751;28;20123;-68
2022/03/11 08:25:40;;;;;;;20.13;14.48;;;;;;;8.93;39.55;101376.09;5113247;28;20031;-68
2022/03/11 08:28:10;;;;;;;23.63;13.55;;;;;;;8.98;39.32;101379.38;5113205;28;20436;-68
2022/03/11 08:30:37;;;;;;;19.55;13.85;;;;;;;9.08;39.35;101383.31;5093507;28;20028;-68
2022/03/11 08:33:05;;;;;;;18.55;14.07;;;;;;;9.25;39.12;101376.31;5092990;28;20043;-68
2022/03/11 08:35:31;;;;;;;17.67;13.02;;;;;;;9.34;39.41;101373.22;5094312;28;20431;-68
2022/03/11 08:37:57;;;;;;;20.63;13.35;;;;;;;9.57;38.67;101366.75;5097923;28;20107;-68
2022/03/11 08:40:23;;;;;;;19.13;14.45;;;;;;;9.68;38.38;101360.91;5092989;28;20552;-68
2022/03/11 08:42:50;;;;;;;20.35;14.10;;;;;;;9.77;38.24;101355.97;5084948;28;20031;-68
2022/03/11 08:45:16;;;;;;;18.25;14.23;;;;;;;9.92;38.11;101362.28;5094164;28;20084;-68
2022/03/11 08:47:43;;;;;;;22.40;14.27;;;;;;;9.95;37.92;101363.94;5100877;28;20032;-68
2022/03/11 08:50:09;;;;;;;25.23;15.25;;;;;;;9.93;38.13;101349.88;5092323;28;20028;-68
2022/03/11 08:52:36;;;;;;;23.90;14.55;;;;;;;10.00;38.30;101357.44;5104889;28;20032;-68
2022/03/11 08:55:02;;;;;;;23.08;14.50;;;;;;;10.05;38.08;101349.22;5060286;28;20032;-68
2022/03/11 08:57:27;;;;;;;23.30;14.48;;;;;;;10.24;37.99;101355.28;5077510;28;20024;-68
2022/03/11 08:59:55;;;;;;;16.65;13.63;;;;;;;10.32;37.50;101354.03;5093606;28;20156;-68
2022/03/11 09:02:22;;;;;;;22.65;14.00;;;;;;;10.36;37.95;101353.81;5094153;28;20038;-68
2022/03/11 09:04:47;;;;;;;22.08;14.68;;;;;;;10.39;37.96;101332.34;5094284;28;20056;-68
2022/03/11 09:07:13;;;;;;;22.45;14.60;;;;;;;10.54;37.40;101348.44;5111534;28;20107;-69
2022/03/11 09:09:38;;;;;;;19.90;13.98;;;;;;;10.56;37.41;101325.25;5092042;28;20043;-69
2022/03/11 09:12:04;;;;;;;23.38;14.88;;;;;;;10.79;37.51;101351.41;5092346;28;20036;-69
2022/03/11 09:14:30;;;;;;;19.15;14.20;;;;;;;10.76;37.17;101338.28;5081312;28;20032;-69
2022/03/11 09:16:56;;;;;;;21.73;14.45;;;;;;;10.80;37.41;101329.22;5091277;28;20063;-69
2022/03/11 09:19:21;;;;;;;19.90;14.20;;;;;;;11.01;37.44;101334.25;5077628;28;20101;-69
2022/03/11 09:21:47;;;;;;;23.85;13.65;;;;;;;11.12;36.82;101332.69;5057522;28;20035;-69
2022/03/11 09:24:12;;;;;;;21.10;13.88;;;;;;;11.14;37.15;101313.97;5092349;28;20376;-69
2022/03/11 09:26:39;;;;;;;21.92;13.27;;;;;;;11.50;36.44;101331.38;5057432;28;20028;-69
2022/03/11 09:29:05;;;;;;;19.27;14.82;;;;;;;11.68;36.58;101329.47;5075234;28;20073;-69
2022/03/11 09:31:30;;;;;;;22.20;14.25;;;;;;;11.91;36.52;101318.31;5073648;28;20028;-69
2022/03/11 09:33:59;;;;;;;21.08;13.52;;;;;;;12.01;36.11;101322.09;5076259;28;20463;-69
2022/03/11 09:36:25;;;;;;;23.27;14.40;;;;;;;12.06;35.66;101321.84;5109228;28;20053;-69
2022/03/11 09:38:53;;;;;;;22.55;14.20;;;;;;;12.04;35.96;101321.91;5077105;28;20020;-68
2022/03/11 09:41:20;;;;;;;19.38;14.32;;;;;;;11.99;35.82;101315.16;5093793;28;20562;-69
2022/03/11 09:43:46;;;;;;;19.73;14.07;;;;;;;11.91;36.38;101317.41;5111368;28;20059;-70
2022/03/11 09:46:13;;;;;;;20.95;13.75;;;;;;;11.96;36.44;101313.53;5085431;28;20082;-69
2022/03/11 09:48:41;;;;;;;20.65;13.65;;;;;;;12.24;36.37;101309.16;5097648;28;20066;-70
2022/03/11 09:51:09;;;;;;;19.92;14.13;;;;;;;12.38;35.79;101298.50;5086939;28;20367;-70
2022/03/11 09:53:37;;;;;;;20.10;13.68;;;;;;;12.62;35.36;101304.06;5094303;28;20110;-70
2022/03/11 09:56:04;;;;;;;20.58;12.70;;;;;;;12.68;35.05;101290.31;5099806;28;20039;-69
2022/03/11 09:58:32;;;;;;;20.15;13.32;;;;;;;12.59;35.40;101279.38;5103191;28;20020;-70
2022/03/11 10:00:58;;;;;;;18.75;13.60;;;;;;;12.70;35.32;101299.06;5093721;28;20038;-70
2022/03/11 10:03:29;;;;;;;18.58;12.80;;;;;;;12.76;35.54;101287.13;5077668;28;20056;-70
2022/03/11 10:05:55;;;;;;;22.10;14.02;;;;;;;12.89;35.18;101287.22;5080055;28;20035;-70
2022/03/11 10:08:38;;;;;;;20.48;13.80;;;;;;;13.00;35.20;101286.47;5100114;28;20027;-70
2022/03/11 10:11:23;;;;;;;21.52;13.57;;;;;;;13.14;35.19;101273.91;5092957;28;20296;-70
2022/03/11 10:13:50;;;;;;;22.90;13.70;;;;;;;13.33;34.88;101273.59;5094076;28;20043;-70
2022/03/11 10:16:19;;;;;;;19.58;13.48;;;;;;;13.49;34.32;101268.03;5091187;28;20066;-70
2022/03/11 10:18:57;;;;;;;22.20;13.93;;;;;;;13.75;34.36;101263.56;5090447;28;20035;-69
2022/03/11 10:21:31;;;;;;;22.92;13.52;;;;;;;13.66;34.27;101261.53;5090307;28;20082;-70
2022/03/11 10:24:00;;;;;;;25.48;13.60;;;;;;;13.79;34.23;101250.84;5096110;28;20026;-70
2022/03/11 10:26:30;;;;;;;17.20;12.20;;;;;;;14.22;34.13;101253.16;5098380;28;20111;-69
2022/03/11 10:28:58;;;;;;;22.00;13.35;;;;;;;14.32;33.53;101257.75;5076897;28;20028;-69
2022/03/11 10:31:29;;;;;;;21.63;13.52;;;;;;;14.34;33.49;101260.28;5076111;28;20103;-68
2022/03/11 10:34:18;;;;;;;18.10;12.82;;;;;;;14.36;33.85;101250.34;5105625;28;20118;-68
2022/03/11 10:36:48;;;;;;;17.00;12.43;;;;;;;14.85;33.06;101245.88;5096618;28;20028;-68
2022/03/11 10:39:17;;;;;;;21.38;12.35;;;;;;;14.79;33.60;101240.97;5098275;28;20030;-68
2022/03/11 10:41:46;;;;;;;19.67;12.25;;;;;;;15.01;33.25;101237.56;5104313;28;20106;-67
2022/03/11 10:44:12;;;;;;;26.63;12.75;;;;;;;14.70;32.87;101237.16;5088069;28;20056;-68
2022/03/11 10:46:38;;;;;;;21.17;11.90;;;;;;;14.76;33.49;101228.69;5106592;28;20032;-68
2022/03/11 10:49:04;;;;;;;15.15;12.43;;;;;;;15.01;33.27;101225.03;5103181;28;20110;-69
2022/03/11 10:51:38;;;;;;;22.92;12.00;;;;;;;15.09;33.50;101227.97;5099497;28;20028;-68
2022/03/11 10:54:06;;;;;;;17.10;12.40;;;;;;;15.33;33.07;101222.56;5104716;28;20062;-69
2022/03/11 10:56:40;;;;;;;15.15;12.63;;;;;;;15.55;32.43;101215.53;5078684;28;20091;-68
2022/03/11 10:59:11;;;;;;;19.67;13.02;;;;;;;15.74;32.14;101205.09;5104891;28;20035;-68
2022/03/11 11:01:42;;;;;;;19.67;12.75;;;;;;;15.98;31.63;101206.81;5085192;28;20486;-68
2022/03/11 11:04:10;;;;;;;17.00;12.85;;;;;;;16.09;31.28;101202.28;5105065;28;20039;-69
2022/03/11 11:06:36;;;;;;;19.55;13.68;;;;;;;15.92;31.27;101201.94;5100329;28;20031;-69
2022/03/11 11:09:03;;;;;;;20.00;14.27;;;;;;;16.26;31.12;101200.91;5092223;28;20147;-69
2022/03/11 11:11:30;;;;;;;21.92;13.43;;;;;;;16.38;30.38;101212.47;5102090;28;20077;-69
2022/03/11 11:13:58;;;;;;;21.10;13.68;;;;;;;16.41;30.54;101206.84;5100682;28;20110;-69